KCDH/CDH METAR and TAF weather

Enter ICAO airport designator
Station Type Date Time Source
KCDH METAR 2020/02/25 00:15 UTC NOAA

KCDH 250015Z AUTO 28007G12KT 10SM CLR 15/05 A2971 RMK AO2


Station Type Date Time Source
KCDH Decoded METAR 2020/02/25 00:15 UTC NOAA

Camden / Harrell Field, AR, United States (KCDH) 33-37N 092-46W
Feb 24, 2020 - 07:15 PM EST / 2020.02.25 0015 UTC
Wind: from the W (280 degrees) at 8 MPH (7 KT) gusting to 14 MPH (12 KT):0
Visibility: 10 mile(s):0
Sky conditions: clear
Temperature: 59 F (15 C)
Dew Point: 41 F (5 C)
Relative Humidity: 51%
Pressure (altimeter): 29.71 in. Hg (1006 hPa)
ob: KCDH 250015Z AUTO 28007G12KT 10SM CLR 15/05 A2971 RMK AO2
cycle: 0

Station Type Date Time Source
KCDH TAF UTC NOAA

Error!

Example: see airport list